sensor_id;sensor_type;location;lat;lon;timestamp;P1;durP1;ratioP1;P2;durP2;ratioP2
75191;SDS011;63771;52.580;9.734;2023-04-24T00:01:45;1.58;;;1.48;;
75191;SDS011;63771;52.580;9.734;2023-04-24T00:04:10;1.35;;;1.35;;
75191;SDS011;63771;52.580;9.734;2023-04-24T00:06:36;1.40;;;1.40;;
75191;SDS011;63771;52.580;9.734;2023-04-24T00:09:02;2.00;;;1.90;;
75191;SDS011;63771;52.580;9.734;2023-04-24T00:11:28;1.45;;;1.35;;
75191;SDS011;63771;52.580;9.734;2023-04-24T00:13:54;1.95;;;1.83;;
75191;SDS011;63771;52.580;9.734;2023-04-24T00:16:19;1.70;;;1.70;;
75191;SDS011;63771;52.580;9.734;2023-04-24T00:18:45;1.40;;;1.25;;
75191;SDS011;63771;52.580;9.734;2023-04-24T00:21:10;1.13;;;1.13;;
75191;SDS011;63771;52.580;9.734;2023-04-24T00:23:36;1.17;;;1.17;;
75191;SDS011;63771;52.580;9.734;2023-04-24T00:26:01;0.93;;;0.93;;
75191;SDS011;63771;52.580;9.734;2023-04-24T00:28:27;1.02;;;1.02;;
75191;SDS011;63771;52.580;9.734;2023-04-24T00:30:52;1.02;;;1.02;;
75191;SDS011;63771;52.580;9.734;2023-04-24T00:33:17;1.63;;;1.52;;
75191;SDS011;63771;52.580;9.734;2023-04-24T00:35:43;1.00;;;1.00;;
75191;SDS011;63771;52.580;9.734;2023-04-24T00:38:08;2.37;;;1.20;;
75191;SDS011;63771;52.580;9.734;2023-04-24T00:40:33;1.20;;;1.20;;
75191;SDS011;63771;52.580;9.734;2023-04-24T00:42:59;1.48;;;1.48;;
75191;SDS011;63771;52.580;9.734;2023-04-24T00:45:24;1.38;;;1.00;;
75191;SDS011;63771;52.580;9.734;2023-04-24T00:47:50;1.43;;;1.33;;
75191;SDS011;63771;52.580;9.734;2023-04-24T00:50:17;1.13;;;1.08;;
75191;SDS011;63771;52.580;9.734;2023-04-24T00:52:42;1.40;;;1.40;;
75191;SDS011;63771;52.580;9.734;2023-04-24T00:55:08;1.05;;;1.05;;
75191;SDS011;63771;52.580;9.734;2023-04-24T00:57:33;1.25;;;1.05;;
75191;SDS011;63771;52.580;9.734;2023-04-24T00:59:59;1.38;;;1.27;;
75191;SDS011;63771;52.580;9.734;2023-04-24T01:02:24;1.65;;;0.95;;
75191;SDS011;63771;52.580;9.734;2023-04-24T01:04:51;1.17;;;1.08;;
75191;SDS011;63771;52.580;9.734;2023-04-24T01:07:18;1.20;;;1.20;;
75191;SDS011;63771;52.580;9.734;2023-04-24T01:09:45;0.93;;;0.93;;
75191;SDS011;63771;52.580;9.734;2023-04-24T01:14:39;6.93;;;1.40;;
75191;SDS011;63771;52.580;9.734;2023-04-24T01:17:05;1.10;;;1.10;;
75191;SDS011;63771;52.580;9.734;2023-04-24T01:19:30;2.17;;;1.63;;
75191;SDS011;63771;52.580;9.734;2023-04-24T01:21:57;1.00;;;1.00;;
75191;SDS011;63771;52.580;9.734;2023-04-24T01:24:23;1.10;;;1.00;;
75191;SDS011;63771;52.580;9.734;2023-04-24T01:26:48;1.00;;;1.00;;
75191;SDS011;63771;52.580;9.734;2023-04-24T01:29:14;1.02;;;1.02;;
75191;SDS011;63771;52.580;9.734;2023-04-24T01:31:40;0.93;;;0.93;;
75191;SDS011;63771;52.580;9.734;2023-04-24T01:34:05;1.45;;;0.98;;
75191;SDS011;63771;52.580;9.734;2023-04-24T01:36:31;0.98;;;0.98;;
75191;SDS011;63771;52.580;9.734;2023-04-24T01:38:57;1.15;;;1.15;;
75191;SDS011;63771;52.580;9.734;2023-04-24T01:41:22;1.10;;;1.10;;
75191;SDS011;63771;52.580;9.734;2023-04-24T01:43:48;1.45;;;1.40;;
75191;SDS011;63771;52.580;9.734;2023-04-24T01:46:14;1.10;;;1.10;;
75191;SDS011;63771;52.580;9.734;2023-04-24T01:48:39;1.05;;;1.05;;
75191;SDS011;63771;52.580;9.734;2023-04-24T01:51:06;1.40;;;1.30;;
75191;SDS011;63771;52.580;9.734;2023-04-24T01:53:31;1.20;;;1.20;;
75191;SDS011;63771;52.580;9.734;2023-04-24T01:55:56;1.47;;;1.30;;
75191;SDS011;63771;52.580;9.734;2023-04-24T01:58:22;0.93;;;0.93;;
75191;SDS011;63771;52.580;9.734;2023-04-24T02:00:47;1.20;;;1.20;;
75191;SDS011;63771;52.580;9.734;2023-04-24T02:03:13;1.27;;;1.27;;
75191;SDS011;63771;52.580;9.734;2023-04-24T02:05:38;1.13;;;1.13;;
75191;SDS011;63771;52.580;9.734;2023-04-24T02:08:03;0.97;;;0.97;;
75191;SDS011;63771;52.580;9.734;2023-04-24T02:10:29;1.37;;;1.23;;
75191;SDS011;63771;52.580;9.734;2023-04-24T02:12:54;1.25;;;1.25;;
75191;SDS011;63771;52.580;9.734;2023-04-24T02:15:19;1.20;;;1.20;;
75191;SDS011;63771;52.580;9.734;2023-04-24T02:17:45;0.83;;;0.83;;
75191;SDS011;63771;52.580;9.734;2023-04-24T02:20:10;1.30;;;1.30;;
75191;SDS011;63771;52.580;9.734;2023-04-24T02:22:35;1.83;;;1.35;;
75191;SDS011;63771;52.580;9.734;2023-04-24T02:25:01;1.30;;;1.30;;
75191;SDS011;63771;52.580;9.734;2023-04-24T02:27:27;1.65;;;1.48;;
75191;SDS011;63771;52.580;9.734;2023-04-24T02:29:52;2.20;;;2.00;;
75191;SDS011;63771;52.580;9.734;2023-04-24T02:32:17;1.43;;;1.30;;
75191;SDS011;63771;52.580;9.734;2023-04-24T02:34:43;1.20;;;1.20;;
75191;SDS011;63771;52.580;9.734;2023-04-24T02:37:08;1.33;;;1.30;;
75191;SDS011;63771;52.580;9.734;2023-04-24T02:39:33;1.20;;;1.20;;
75191;SDS011;63771;52.580;9.734;2023-04-24T02:41:58;1.50;;;1.50;;
75191;SDS011;63771;52.580;9.734;2023-04-24T02:44:24;1.65;;;1.55;;
75191;SDS011;63771;52.580;9.734;2023-04-24T02:46:50;1.13;;;1.10;;
75191;SDS011;63771;52.580;9.734;2023-04-24T02:49:15;1.40;;;1.30;;
75191;SDS011;63771;52.580;9.734;2023-04-24T02:51:40;0.90;;;0.90;;
75191;SDS011;63771;52.580;9.734;2023-04-24T02:54:06;1.35;;;1.30;;
75191;SDS011;63771;52.580;9.734;2023-04-24T02:56:34;1.73;;;1.63;;
75191;SDS011;63771;52.580;9.734;2023-04-24T02:58:59;1.17;;;1.17;;
75191;SDS011;63771;52.580;9.734;2023-04-24T03:01:24;0.90;;;0.90;;
75191;SDS011;63771;52.580;9.734;2023-04-24T03:03:50;1.08;;;1.08;;
75191;SDS011;63771;52.580;9.734;2023-04-24T03:06:15;1.00;;;1.00;;
75191;SDS011;63771;52.580;9.734;2023-04-24T03:08:40;3.53;;;1.00;;
75191;SDS011;63771;52.580;9.734;2023-04-24T03:11:06;1.00;;;1.00;;
75191;SDS011;63771;52.580;9.734;2023-04-24T03:13:31;0.80;;;0.80;;
75191;SDS011;63771;52.580;9.734;2023-04-24T03:15:56;1.37;;;1.27;;
75191;SDS011;63771;52.580;9.734;2023-04-24T03:18:22;1.23;;;1.07;;
75191;SDS011;63771;52.580;9.734;2023-04-24T03:20:47;1.00;;;1.00;;
75191;SDS011;63771;52.580;9.734;2023-04-24T03:23:12;0.80;;;0.80;;
75191;SDS011;63771;52.580;9.734;2023-04-24T03:25:38;0.80;;;0.80;;
75191;SDS011;63771;52.580;9.734;2023-04-24T03:28:03;0.82;;;0.82;;
75191;SDS011;63771;52.580;9.734;2023-04-24T03:30:29;1.00;;;1.00;;
75191;SDS011;63771;52.580;9.734;2023-04-24T03:32:55;0.90;;;0.90;;
75191;SDS011;63771;52.580;9.734;2023-04-24T03:35:20;0.85;;;0.85;;
75191;SDS011;63771;52.580;9.734;2023-04-24T03:37:46;1.10;;;1.10;;
75191;SDS011;63771;52.580;9.734;2023-04-24T03:40:12;2.55;;;0.90;;
75191;SDS011;63771;52.580;9.734;2023-04-24T03:42:37;1.10;;;1.10;;
75191;SDS011;63771;52.580;9.734;2023-04-24T03:45:03;1.60;;;1.00;;
75191;SDS011;63771;52.580;9.734;2023-04-24T03:47:28;1.17;;;1.15;;
75191;SDS011;63771;52.580;9.734;2023-04-24T03:49:53;0.90;;;0.90;;
75191;SDS011;63771;52.580;9.734;2023-04-24T03:52:20;1.00;;;1.00;;
75191;SDS011;63771;52.580;9.734;2023-04-24T03:54:46;0.95;;;0.95;;
75191;SDS011;63771;52.580;9.734;2023-04-24T03:57:11;1.20;;;1.20;;
75191;SDS011;63771;52.580;9.734;2023-04-24T03:59:36;2.17;;;1.20;;
75191;SDS011;63771;52.580;9.734;2023-04-24T04:02:02;1.20;;;1.10;;
75191;SDS011;63771;52.580;9.734;2023-04-24T04:04:27;1.10;;;1.10;;
75191;SDS011;63771;52.580;9.734;2023-04-24T04:06:52;0.77;;;0.77;;
75191;SDS011;63771;52.580;9.734;2023-04-24T04:09:18;2.35;;;1.20;;
75191;SDS011;63771;52.580;9.734;2023-04-24T04:11:43;0.98;;;0.98;;
75191;SDS011;63771;52.580;9.734;2023-04-24T04:14:08;1.03;;;1.03;;
75191;SDS011;63771;52.580;9.734;2023-04-24T04:16:34;1.60;;;1.50;;
75191;SDS011;63771;52.580;9.734;2023-04-24T04:19:01;1.20;;;1.20;;
75191;SDS011;63771;52.580;9.734;2023-04-24T04:21:27;1.38;;;1.33;;
75191;SDS011;63771;52.580;9.734;2023-04-24T04:23:53;1.30;;;1.30;;
75191;SDS011;63771;52.580;9.734;2023-04-24T04:26:18;1.70;;;1.23;;
75191;SDS011;63771;52.580;9.734;2023-04-24T04:28:46;1.20;;;1.10;;
75191;SDS011;63771;52.580;9.734;2023-04-24T04:31:12;2.15;;;1.27;;
75191;SDS011;63771;52.580;9.734;2023-04-24T04:33:38;1.10;;;1.10;;
75191;SDS011;63771;52.580;9.734;2023-04-24T04:36:04;1.20;;;1.20;;
75191;SDS011;63771;52.580;9.734;2023-04-24T04:38:30;1.08;;;1.08;;
75191;SDS011;63771;52.580;9.734;2023-04-24T04:40:55;1.38;;;0.98;;
75191;SDS011;63771;52.580;9.734;2023-04-24T04:43:22;1.00;;;1.00;;
75191;SDS011;63771;52.580;9.734;2023-04-24T04:45:47;1.35;;;1.30;;
75191;SDS011;63771;52.580;9.734;2023-04-24T04:48:13;2.85;;;1.58;;
75191;SDS011;63771;52.580;9.734;2023-04-24T04:50:39;1.20;;;1.20;;
75191;SDS011;63771;52.580;9.734;2023-04-24T04:53:04;1.40;;;1.30;;
75191;SDS011;63771;52.580;9.734;2023-04-24T04:55:30;1.88;;;1.25;;
75191;SDS011;63771;52.580;9.734;2023-04-24T04:57:55;1.48;;;1.30;;
75191;SDS011;63771;52.580;9.734;2023-04-24T05:00:21;0.83;;;0.83;;
75191;SDS011;63771;52.580;9.734;2023-04-24T05:02:49;1.10;;;1.10;;
75191;SDS011;63771;52.580;9.734;2023-04-24T05:05:14;1.25;;;1.17;;
75191;SDS011;63771;52.580;9.734;2023-04-24T05:07:41;1.10;;;1.10;;
75191;SDS011;63771;52.580;9.734;2023-04-24T05:10:07;1.37;;;1.27;;
75191;SDS011;63771;52.580;9.734;2023-04-24T05:12:33;0.90;;;0.90;;
75191;SDS011;63771;52.580;9.734;2023-04-24T05:14:58;1.90;;;1.40;;
75191;SDS011;63771;52.580;9.734;2023-04-24T05:17:23;1.30;;;1.30;;
75191;SDS011;63771;52.580;9.734;2023-04-24T05:19:49;1.67;;;1.57;;
75191;SDS011;63771;52.580;9.734;2023-04-24T05:22:14;2.47;;;1.33;;
75191;SDS011;63771;52.580;9.734;2023-04-24T05:24:40;1.52;;;1.02;;
75191;SDS011;63771;52.580;9.734;2023-04-24T05:27:05;1.58;;;1.48;;
75191;SDS011;63771;52.580;9.734;2023-04-24T05:29:31;0.75;;;0.75;;
75191;SDS011;63771;52.580;9.734;2023-04-24T05:31:56;1.15;;;1.05;;
75191;SDS011;63771;52.580;9.734;2023-04-24T05:34:22;0.95;;;0.95;;
75191;SDS011;63771;52.580;9.734;2023-04-24T05:36:47;1.60;;;1.50;;
75191;SDS011;63771;52.580;9.734;2023-04-24T05:39:13;1.55;;;1.50;;
75191;SDS011;63771;52.580;9.734;2023-04-24T05:41:39;1.20;;;1.00;;
75191;SDS011;63771;52.580;9.734;2023-04-24T05:44:04;5.05;;;1.30;;
75191;SDS011;63771;52.580;9.734;2023-04-24T05:46:29;0.93;;;0.93;;
75191;SDS011;63771;52.580;9.734;2023-04-24T05:48:55;0.80;;;0.80;;
75191;SDS011;63771;52.580;9.734;2023-04-24T05:51:20;1.10;;;1.10;;
75191;SDS011;63771;52.580;9.734;2023-04-24T05:53:46;1.20;;;1.20;;
75191;SDS011;63771;52.580;9.734;2023-04-24T05:56:11;3.30;;;0.90;;
75191;SDS011;63771;52.580;9.734;2023-04-24T05:58:36;1.15;;;0.90;;
75191;SDS011;63771;52.580;9.734;2023-04-24T06:01:02;1.23;;;1.23;;
75191;SDS011;63771;52.580;9.734;2023-04-24T06:03:28;2.88;;;1.05;;
75191;SDS011;63771;52.580;9.734;2023-04-24T06:05:53;1.25;;;1.25;;
75191;SDS011;63771;52.580;9.734;2023-04-24T06:08:19;1.13;;;1.10;;
75191;SDS011;63771;52.580;9.734;2023-04-24T06:10:44;1.07;;;1.07;;
75191;SDS011;63771;52.580;9.734;2023-04-24T06:13:10;1.10;;;1.10;;
75191;SDS011;63771;52.580;9.734;2023-04-24T06:15:36;3.10;;;1.27;;
75191;SDS011;63771;52.580;9.734;2023-04-24T06:18:02;2.20;;;2.10;;
75191;SDS011;63771;52.580;9.734;2023-04-24T06:20:27;1.02;;;1.02;;
75191;SDS011;63771;52.580;9.734;2023-04-24T06:22:53;0.80;;;0.80;;
75191;SDS011;63771;52.580;9.734;2023-04-24T06:25:18;1.10;;;1.10;;
75191;SDS011;63771;52.580;9.734;2023-04-24T06:27:44;2.38;;;1.25;;
75191;SDS011;63771;52.580;9.734;2023-04-24T06:30:09;1.57;;;1.57;;
75191;SDS011;63771;52.580;9.734;2023-04-24T06:32:35;1.67;;;1.40;;
75191;SDS011;63771;52.580;9.734;2023-04-24T06:35:00;1.67;;;1.23;;
75191;SDS011;63771;52.580;9.734;2023-04-24T06:37:25;1.50;;;1.40;;
75191;SDS011;63771;52.580;9.734;2023-04-24T06:39:51;2.33;;;2.17;;
75191;SDS011;63771;52.580;9.734;2023-04-24T06:42:16;1.43;;;1.33;;
75191;SDS011;63771;52.580;9.734;2023-04-24T06:44:41;2.00;;;1.90;;
75191;SDS011;63771;52.580;9.734;2023-04-24T06:47:08;1.75;;;1.65;;
75191;SDS011;63771;52.580;9.734;2023-04-24T06:49:37;2.35;;;1.90;;
75191;SDS011;63771;52.580;9.734;2023-04-24T06:52:02;2.35;;;2.13;;
75191;SDS011;63771;52.580;9.734;2023-04-24T06:54:28;2.85;;;2.40;;
75191;SDS011;63771;52.580;9.734;2023-04-24T06:56:54;2.53;;;2.33;;
75191;SDS011;63771;52.580;9.734;2023-04-24T06:59:20;3.28;;;3.00;;
75191;SDS011;63771;52.580;9.734;2023-04-24T07:01:45;4.57;;;4.28;;
75191;SDS011;63771;52.580;9.734;2023-04-24T07:04:11;3.97;;;3.67;;
75191;SDS011;63771;52.580;9.734;2023-04-24T07:06:37;4.18;;;3.88;;
75191;SDS011;63771;52.580;9.734;2023-04-24T07:09:04;4.60;;;4.20;;
75191;SDS011;63771;52.580;9.734;2023-04-24T07:11:29;5.15;;;4.35;;
75191;SDS011;63771;52.580;9.734;2023-04-24T07:13:55;4.30;;;3.88;;
75191;SDS011;63771;52.580;9.734;2023-04-24T07:16:20;5.22;;;4.82;;
75191;SDS011;63771;52.580;9.734;2023-04-24T07:18:46;5.25;;;4.75;;
75191;SDS011;63771;52.580;9.734;2023-04-24T07:21:11;7.37;;;5.53;;
75191;SDS011;63771;52.580;9.734;2023-04-24T07:23:37;5.17;;;4.70;;
75191;SDS011;63771;52.580;9.734;2023-04-24T07:26:02;5.00;;;4.50;;
75191;SDS011;63771;52.580;9.734;2023-04-24T07:28:27;7.07;;;4.93;;
75191;SDS011;63771;52.580;9.734;2023-04-24T07:30:56;4.57;;;4.25;;
75191;SDS011;63771;52.580;9.734;2023-04-24T07:33:22;5.72;;;5.22;;
75191;SDS011;63771;52.580;9.734;2023-04-24T07:35:47;6.50;;;5.85;;
75191;SDS011;63771;52.580;9.734;2023-04-24T07:38:13;6.38;;;4.85;;
75191;SDS011;63771;52.580;9.734;2023-04-24T07:40:38;6.10;;;5.13;;
75191;SDS011;63771;52.580;9.734;2023-04-24T07:43:03;8.40;;;5.60;;
75191;SDS011;63771;52.580;9.734;2023-04-24T07:45:29;4.80;;;4.30;;
75191;SDS011;63771;52.580;9.734;2023-04-24T07:47:54;4.43;;;3.85;;
75191;SDS011;63771;52.580;9.734;2023-04-24T07:50:19;4.20;;;3.80;;
75191;SDS011;63771;52.580;9.734;2023-04-24T07:52:45;4.57;;;4.18;;
75191;SDS011;63771;52.580;9.734;2023-04-24T07:55:11;5.57;;;4.88;;
75191;SDS011;63771;52.580;9.734;2023-04-24T07:57:36;5.60;;;4.03;;
75191;SDS011;63771;52.580;9.734;2023-04-24T08:00:02;4.50;;;4.00;;
75191;SDS011;63771;52.580;9.734;2023-04-24T08:02:28;4.57;;;4.13;;
75191;SDS011;63771;52.580;9.734;2023-04-24T08:04:54;5.03;;;4.10;;
75191;SDS011;63771;52.580;9.734;2023-04-24T08:07:19;5.63;;;4.45;;
75191;SDS011;63771;52.580;9.734;2023-04-24T08:09:45;5.72;;;5.20;;
75191;SDS011;63771;52.580;9.734;2023-04-24T08:12:10;5.82;;;4.60;;
75191;SDS011;63771;52.580;9.734;2023-04-24T08:14:36;5.85;;;4.80;;
75191;SDS011;63771;52.580;9.734;2023-04-24T08:17:01;7.47;;;4.47;;
75191;SDS011;63771;52.580;9.734;2023-04-24T08:19:27;5.50;;;5.00;;
75191;SDS011;63771;52.580;9.734;2023-04-24T08:21:52;5.38;;;4.93;;
75191;SDS011;63771;52.580;9.734;2023-04-24T08:24:18;6.00;;;5.50;;
75191;SDS011;63771;52.580;9.734;2023-04-24T08:26:43;6.23;;;4.90;;
75191;SDS011;63771;52.580;9.734;2023-04-24T08:29:08;6.13;;;5.57;;
75191;SDS011;63771;52.580;9.734;2023-04-24T08:31:34;7.03;;;6.13;;
75191;SDS011;63771;52.580;9.734;2023-04-24T08:34:00;6.75;;;6.15;;
75191;SDS011;63771;52.580;9.734;2023-04-24T08:36:25;9.73;;;6.25;;
75191;SDS011;63771;52.580;9.734;2023-04-24T08:38:51;6.78;;;6.10;;
75191;SDS011;63771;52.580;9.734;2023-04-24T08:41:17;8.90;;;5.88;;
75191;SDS011;63771;52.580;9.734;2023-04-24T08:43:43;6.80;;;5.80;;
75191;SDS011;63771;52.580;9.734;2023-04-24T08:46:11;8.65;;;6.13;;
75191;SDS011;63771;52.580;9.734;2023-04-24T08:48:38;8.48;;;6.63;;
75191;SDS011;63771;52.580;9.734;2023-04-24T08:51:06;6.78;;;5.63;;
75191;SDS011;63771;52.580;9.734;2023-04-24T08:53:32;7.30;;;6.50;;
75191;SDS011;63771;52.580;9.734;2023-04-24T08:55:58;7.13;;;5.90;;
75191;SDS011;63771;52.580;9.734;2023-04-24T08:58:26;7.82;;;6.43;;
75191;SDS011;63771;52.580;9.734;2023-04-24T09:00:56;7.07;;;6.10;;
75191;SDS011;63771;52.580;9.734;2023-04-24T09:03:22;6.97;;;6.28;;
75191;SDS011;63771;52.580;9.734;2023-04-24T09:05:48;6.70;;;6.10;;
75191;SDS011;63771;52.580;9.734;2023-04-24T09:08:15;9.48;;;5.78;;
75191;SDS011;63771;52.580;9.734;2023-04-24T09:10:43;8.40;;;5.25;;
75191;SDS011;63771;52.580;9.734;2023-04-24T09:13:08;7.57;;;5.40;;
75191;SDS011;63771;52.580;9.734;2023-04-24T09:15:36;6.13;;;5.35;;
75191;SDS011;63771;52.580;9.734;2023-04-24T09:18:05;6.20;;;5.60;;
75191;SDS011;63771;52.580;9.734;2023-04-24T09:20:31;6.70;;;5.85;;
75191;SDS011;63771;52.580;9.734;2023-04-24T09:22:57;6.22;;;5.63;;
75191;SDS011;63771;52.580;9.734;2023-04-24T09:25:24;7.35;;;6.28;;
75191;SDS011;63771;52.580;9.734;2023-04-24T09:27:58;6.60;;;6.00;;
75191;SDS011;63771;52.580;9.734;2023-04-24T09:30:26;5.47;;;4.97;;
75191;SDS011;63771;52.580;9.734;2023-04-24T09:33:09;9.00;;;5.77;;
75191;SDS011;63771;52.580;9.734;2023-04-24T09:35:51;6.40;;;5.72;;
75191;SDS011;63771;52.580;9.734;2023-04-24T09:38:17;8.38;;;6.15;;
75191;SDS011;63771;52.580;9.734;2023-04-24T09:40:42;5.47;;;4.97;;
75191;SDS011;63771;52.580;9.734;2023-04-24T09:43:11;6.05;;;5.40;;
75191;SDS011;63771;52.580;9.734;2023-04-24T09:45:37;5.82;;;4.82;;
75191;SDS011;63771;52.580;9.734;2023-04-24T09:48:04;5.60;;;5.10;;
75191;SDS011;63771;52.580;9.734;2023-04-24T09:50:31;4.75;;;3.97;;
75191;SDS011;63771;52.580;9.734;2023-04-24T09:52:58;4.40;;;3.88;;
75191;SDS011;63771;52.580;9.734;2023-04-24T09:55:26;4.82;;;4.43;;
75191;SDS011;63771;52.580;9.734;2023-04-24T09:57:52;4.35;;;4.05;;
75191;SDS011;63771;52.580;9.734;2023-04-24T10:00:29;4.97;;;4.57;;
75191;SDS011;63771;52.580;9.734;2023-04-24T10:02:59;5.03;;;4.50;;
75191;SDS011;63771;52.580;9.734;2023-04-24T10:05:28;6.68;;;4.72;;
75191;SDS011;63771;52.580;9.734;2023-04-24T10:08:01;4.88;;;4.28;;
75191;SDS011;63771;52.580;9.734;2023-04-24T10:10:28;4.22;;;3.88;;
75191;SDS011;63771;52.580;9.734;2023-04-24T10:12:54;4.93;;;4.43;;
75191;SDS011;63771;52.580;9.734;2023-04-24T10:15:20;4.32;;;4.03;;
75191;SDS011;63771;52.580;9.734;2023-04-24T10:17:49;4.07;;;3.70;;
75191;SDS011;63771;52.580;9.734;2023-04-24T10:20:19;5.95;;;4.35;;
75191;SDS011;63771;52.580;9.734;2023-04-24T10:22:49;4.38;;;3.97;;
75191;SDS011;63771;52.580;9.734;2023-04-24T10:25:16;5.40;;;3.65;;
75191;SDS011;63771;52.580;9.734;2023-04-24T10:27:43;6.07;;;3.63;;
75191;SDS011;63771;52.580;9.734;2023-04-24T10:30:11;7.45;;;4.00;;
75191;SDS011;63771;52.580;9.734;2023-04-24T10:32:37;4.10;;;3.70;;
75191;SDS011;63771;52.580;9.734;2023-04-24T10:35:02;3.53;;;3.23;;
75191;SDS011;63771;52.580;9.734;2023-04-24T10:37:28;3.30;;;3.08;;
75191;SDS011;63771;52.580;9.734;2023-04-24T10:40:00;4.38;;;4.07;;
75191;SDS011;63771;52.580;9.734;2023-04-24T10:42:26;6.30;;;4.15;;
75191;SDS011;63771;52.580;9.734;2023-04-24T10:44:52;4.53;;;4.20;;
75191;SDS011;63771;52.580;9.734;2023-04-24T10:47:19;3.80;;;3.58;;
75191;SDS011;63771;52.580;9.734;2023-04-24T10:49:44;3.42;;;3.22;;
75191;SDS011;63771;52.580;9.734;2023-04-24T10:52:10;3.95;;;3.15;;
75191;SDS011;63771;52.580;9.734;2023-04-24T10:59:43;3.78;;;3.22;;
75191;SDS011;63771;52.580;9.734;2023-04-24T11:02:09;2.95;;;2.75;;
75191;SDS011;63771;52.580;9.734;2023-04-24T11:04:34;2.63;;;2.50;;
75191;SDS011;63771;52.580;9.734;2023-04-24T11:07:00;2.75;;;2.58;;
75191;SDS011;63771;52.580;9.734;2023-04-24T11:09:28;2.40;;;2.30;;
75191;SDS011;63771;52.580;9.734;2023-04-24T11:12:06;3.88;;;2.42;;
75191;SDS011;63771;52.580;9.734;2023-04-24T11:17:27;2.15;;;2.00;;
75191;SDS011;63771;52.580;9.734;2023-04-24T11:19:54;2.50;;;2.30;;
75191;SDS011;63771;52.580;9.734;2023-04-24T11:22:26;4.22;;;2.00;;
75191;SDS011;63771;52.580;9.734;2023-04-24T11:24:56;5.55;;;2.20;;
75191;SDS011;63771;52.580;9.734;2023-04-24T11:27:21;2.90;;;2.17;;
75191;SDS011;63771;52.580;9.734;2023-04-24T11:29:48;3.50;;;2.17;;
75191;SDS011;63771;52.580;9.734;2023-04-24T11:37:22;2.35;;;2.25;;
75191;SDS011;63771;52.580;9.734;2023-04-24T11:39:56;2.38;;;2.25;;
75191;SDS011;63771;52.580;9.734;2023-04-24T11:42:22;1.85;;;1.75;;
75191;SDS011;63771;52.580;9.734;2023-04-24T11:44:49;1.92;;;1.83;;
75191;SDS011;63771;52.580;9.734;2023-04-24T11:47:15;2.30;;;2.20;;
75191;SDS011;63771;52.580;9.734;2023-04-24T11:49:40;2.03;;;1.92;;
75191;SDS011;63771;52.580;9.734;2023-04-24T11:52:06;1.83;;;1.73;;
75191;SDS011;63771;52.580;9.734;2023-04-24T11:54:31;2.75;;;1.77;;
75191;SDS011;63771;52.580;9.734;2023-04-24T11:56:57;2.67;;;1.95;;
75191;SDS011;63771;52.580;9.734;2023-04-24T11:59:22;1.83;;;1.73;;
75191;SDS011;63771;52.580;9.734;2023-04-24T12:01:48;1.95;;;1.85;;
75191;SDS011;63771;52.580;9.734;2023-04-24T12:04:15;2.67;;;2.20;;
75191;SDS011;63771;52.580;9.734;2023-04-24T12:07:03;1.50;;;1.40;;
75191;SDS011;63771;52.580;9.734;2023-04-24T12:09:40;1.73;;;1.50;;
75191;SDS011;63771;52.580;9.734;2023-04-24T12:12:20;1.80;;;1.67;;
75191;SDS011;63771;52.580;9.734;2023-04-24T12:14:49;1.70;;;1.60;;
75191;SDS011;63771;52.580;9.734;2023-04-24T12:17:17;1.70;;;1.60;;
75191;SDS011;63771;52.580;9.734;2023-04-24T12:19:48;2.00;;;1.80;;
75191;SDS011;63771;52.580;9.734;2023-04-24T12:22:14;2.05;;;1.60;;
75191;SDS011;63771;52.580;9.734;2023-04-24T12:25:03;1.88;;;1.73;;
75191;SDS011;63771;52.580;9.734;2023-04-24T12:27:33;2.83;;;2.63;;
75191;SDS011;63771;52.580;9.734;2023-04-24T12:29:59;1.90;;;1.80;;
75191;SDS011;63771;52.580;9.734;2023-04-24T12:32:26;1.98;;;1.88;;
75191;SDS011;63771;52.580;9.734;2023-04-24T12:34:53;2.38;;;1.85;;
75191;SDS011;63771;52.580;9.734;2023-04-24T12:37:20;1.90;;;1.70;;
75191;SDS011;63771;52.580;9.734;2023-04-24T12:42:35;2.50;;;1.48;;
75191;SDS011;63771;52.580;9.734;2023-04-24T12:45:07;2.00;;;1.90;;
75191;SDS011;63771;52.580;9.734;2023-04-24T12:47:33;1.70;;;1.60;;
75191;SDS011;63771;52.580;9.734;2023-04-24T12:50:00;2.03;;;1.92;;
75191;SDS011;63771;52.580;9.734;2023-04-24T12:52:27;1.50;;;1.45;;
75191;SDS011;63771;52.580;9.734;2023-04-24T12:54:55;5.10;;;1.48;;
75191;SDS011;63771;52.580;9.734;2023-04-24T12:57:22;3.08;;;1.50;;
75191;SDS011;63771;52.580;9.734;2023-04-24T12:59:48;2.45;;;1.67;;
75191;SDS011;63771;52.580;9.734;2023-04-24T13:02:13;1.90;;;1.80;;
75191;SDS011;63771;52.580;9.734;2023-04-24T13:04:42;1.80;;;1.70;;
75191;SDS011;63771;52.580;9.734;2023-04-24T13:07:07;1.73;;;1.67;;
75191;SDS011;63771;52.580;9.734;2023-04-24T13:09:34;3.43;;;1.80;;
75191;SDS011;63771;52.580;9.734;2023-04-24T13:12:00;2.70;;;2.25;;
75191;SDS011;63771;52.580;9.734;2023-04-24T13:14:25;3.63;;;2.20;;
75191;SDS011;63771;52.580;9.734;2023-04-24T13:16:51;2.30;;;2.20;;
75191;SDS011;63771;52.580;9.734;2023-04-24T13:19:16;2.15;;;1.98;;
75191;SDS011;63771;52.580;9.734;2023-04-24T13:21:42;1.85;;;1.75;;
75191;SDS011;63771;52.580;9.734;2023-04-24T13:24:08;1.77;;;1.73;;
75191;SDS011;63771;52.580;9.734;2023-04-24T13:26:33;1.67;;;1.58;;
75191;SDS011;63771;52.580;9.734;2023-04-24T13:29:00;1.60;;;1.60;;
75191;SDS011;63771;52.580;9.734;2023-04-24T13:31:25;1.70;;;1.70;;
75191;SDS011;63771;52.580;9.734;2023-04-24T13:33:51;5.53;;;2.13;;
75191;SDS011;63771;52.580;9.734;2023-04-24T13:36:16;3.17;;;1.60;;
75191;SDS011;63771;52.580;9.734;2023-04-24T13:38:42;1.58;;;1.48;;
75191;SDS011;63771;52.580;9.734;2023-04-24T13:41:09;1.45;;;1.40;;
75191;SDS011;63771;52.580;9.734;2023-04-24T13:43:34;1.40;;;1.40;;
75191;SDS011;63771;52.580;9.734;2023-04-24T13:46:00;1.30;;;1.30;;
75191;SDS011;63771;52.580;9.734;2023-04-24T13:48:27;1.23;;;1.23;;
75191;SDS011;63771;52.580;9.734;2023-04-24T13:50:53;2.28;;;1.17;;
75191;SDS011;63771;52.580;9.734;2023-04-24T13:53:18;1.20;;;1.20;;
75191;SDS011;63771;52.580;9.734;2023-04-24T13:55:43;1.30;;;1.20;;
75191;SDS011;63771;52.580;9.734;2023-04-24T13:58:09;1.23;;;1.23;;
75191;SDS011;63771;52.580;9.734;2023-04-24T14:00:35;1.95;;;1.52;;
75191;SDS011;63771;52.580;9.734;2023-04-24T14:03:00;1.35;;;1.33;;
75191;SDS011;63771;52.580;9.734;2023-04-24T14:05:26;1.37;;;1.27;;
75191;SDS011;63771;52.580;9.734;2023-04-24T14:07:51;1.70;;;1.60;;
75191;SDS011;63771;52.580;9.734;2023-04-24T14:10:16;1.67;;;1.42;;
75191;SDS011;63771;52.580;9.734;2023-04-24T14:12:42;1.45;;;1.35;;
75191;SDS011;63771;52.580;9.734;2023-04-24T14:15:07;1.30;;;1.30;;
75191;SDS011;63771;52.580;9.734;2023-04-24T14:17:33;1.42;;;1.33;;
75191;SDS011;63771;52.580;9.734;2023-04-24T14:19:59;1.47;;;1.43;;
75191;SDS011;63771;52.580;9.734;2023-04-24T14:22:25;1.63;;;1.52;;
75191;SDS011;63771;52.580;9.734;2023-04-24T14:24:51;4.00;;;1.70;;
75191;SDS011;63771;52.580;9.734;2023-04-24T14:27:16;1.73;;;1.57;;
75191;SDS011;63771;52.580;9.734;2023-04-24T14:29:41;2.10;;;1.90;;
75191;SDS011;63771;52.580;9.734;2023-04-24T14:32:07;2.03;;;1.92;;
75191;SDS011;63771;52.580;9.734;2023-04-24T14:34:33;2.97;;;2.03;;
75191;SDS011;63771;52.580;9.734;2023-04-24T14:36:59;2.53;;;2.08;;
75191;SDS011;63771;52.580;9.734;2023-04-24T14:39:24;2.35;;;2.25;;
75191;SDS011;63771;52.580;9.734;2023-04-24T14:41:50;2.30;;;2.10;;
75191;SDS011;63771;52.580;9.734;2023-04-24T14:44:15;2.60;;;2.40;;
75191;SDS011;63771;52.580;9.734;2023-04-24T14:46:41;2.77;;;1.97;;
75191;SDS011;63771;52.580;9.734;2023-04-24T14:49:07;2.60;;;2.40;;
75191;SDS011;63771;52.580;9.734;2023-04-24T14:51:35;3.17;;;2.50;;
75191;SDS011;63771;52.580;9.734;2023-04-24T14:54:03;2.70;;;2.50;;
75191;SDS011;63771;52.580;9.734;2023-04-24T14:56:29;2.67;;;2.35;;
75191;SDS011;63771;52.580;9.734;2023-04-24T14:58:54;2.22;;;2.03;;
75191;SDS011;63771;52.580;9.734;2023-04-24T15:01:20;2.30;;;2.20;;